Time;durP1;ratioP1;P1;durP2;ratioP2;P2;SDS_P1;SDS_P2;PMS_P1;PMS_P2;Temp;Humidity;BMP_temperature;BMP_pressure;BME280_temperature;BME280_humidity;BME280_pressure;Samples;Min_cycle;Max_cycle;Signal;HPM_P1;HPM_P2
2022/04/23 00:01:17;0.00;0.00;0.62;0.00;0.00;0.62;3.30;2.13;;;26.70;22.20;;;;;;2257418;61;20404;-64
2022/04/23 00:04:02;0.00;0.00;0.62;0.00;0.00;0.62;1.80;1.40;;;26.70;22.20;;;;;;2261152;61;20368;-64
2022/04/23 00:06:48;0.00;0.00;0.62;0.00;0.00;0.62;2.27;1.80;;;26.70;22.10;;;;;;2257057;61;20468;-64
2022/04/23 00:09:32;0.00;0.00;0.62;0.00;0.00;0.62;2.20;2.00;;;26.70;22.20;;;;;;2260183;61;20399;-64
2022/04/23 00:12:18;0.00;0.00;0.62;0.00;0.00;0.62;2.27;1.90;;;26.80;22.20;;;;;;2258389;61;20381;-64
2022/04/23 00:15:06;0.00;0.00;0.62;0.00;0.00;0.62;3.33;2.40;;;26.70;22.20;;;;;;2257039;61;21001;-63
2022/04/23 00:17:50;0.00;0.00;0.62;0.00;0.00;0.62;3.17;2.07;;;26.80;22.30;;;;;;2255939;61;20357;-65
2022/04/23 00:20:36;0.00;0.00;0.62;0.00;0.00;0.62;2.83;2.10;;;26.80;22.30;;;;;;2256218;61;20811;-63
2022/04/23 00:23:21;0.00;0.00;0.62;0.00;0.00;0.62;2.40;2.10;;;26.80;22.30;;;;;;2256818;61;20489;-64
2022/04/23 00:26:06;0.00;0.00;0.62;0.00;0.00;0.62;1.90;1.50;;;26.80;22.30;;;;;;2256922;61;20454;-64
2022/04/23 00:28:53;0.00;0.00;0.62;0.00;0.00;0.62;1.90;1.57;;;26.80;22.30;;;;;;2256038;61;20374;-64
2022/04/23 00:31:38;0.00;0.00;0.62;0.00;0.00;0.62;1.90;1.40;;;26.70;22.20;;;;;;2256043;61;20393;-64
2022/04/23 00:34:22;0.00;0.00;0.62;0.00;0.00;0.62;2.33;1.30;;;26.80;22.20;;;;;;2256779;61;20408;-64
2022/04/23 00:37:07;0.00;0.00;0.62;0.00;0.00;0.62;1.90;1.50;;;26.80;22.20;;;;;;2256687;61;20933;-63
2022/04/23 00:39:51;0.00;0.00;0.62;0.00;0.00;0.62;2.80;1.50;;;26.80;22.20;;;;;;2255450;61;20365;-64
2022/04/23 00:42:45;0.00;0.00;0.62;0.00;0.00;0.62;1.97;1.63;;;26.70;22.20;;;;;;2256018;61;20384;-65
2022/04/23 00:45:32;0.00;0.00;0.62;0.00;0.00;0.62;2.00;1.60;;;26.70;22.20;;;;;;2256538;61;20369;-65
2022/04/23 00:48:16;0.00;0.00;0.62;0.00;0.00;0.62;2.00;1.50;;;26.80;22.20;;;;;;2256231;61;20501;-65
2022/04/23 00:51:01;0.00;0.00;0.62;0.00;0.00;0.62;1.70;1.40;;;26.80;22.20;;;;;;2256227;61;20395;-64
2022/04/23 00:53:46;0.00;0.00;0.62;0.00;0.00;0.62;1.87;1.37;;;26.80;22.20;;;;;;2256150;61;20774;-63
2022/04/23 00:56:33;0.00;0.00;0.62;0.00;0.00;0.62;2.40;1.70;;;26.70;22.20;;;;;;2256960;61;20405;-63
2022/04/23 00:59:18;0.00;0.00;0.62;0.00;0.00;0.62;2.20;1.90;;;26.80;22.20;;;;;;2256428;61;20449;-64
2022/04/23 01:02:05;0.00;0.00;0.62;0.00;0.00;0.62;2.10;1.87;;;26.80;22.10;;;;;;2257215;61;20517;-62
2022/04/23 01:04:49;0.00;0.00;0.62;0.00;0.00;0.62;1.97;1.77;;;26.80;22.10;;;;;;2257270;61;20366;-63
2022/04/23 01:07:38;0.00;0.00;0.62;0.00;0.00;0.62;2.40;1.93;;;26.80;22.10;;;;;;2257790;61;20385;-63
2022/04/23 01:10:23;0.00;0.00;0.62;0.00;0.00;0.62;2.10;1.80;;;26.80;22.00;;;;;;2257496;61;20361;-63
2022/04/23 01:13:08;0.00;0.00;0.62;0.00;0.00;0.62;1.93;1.77;;;26.80;22.00;;;;;;2260048;61;20408;-63
2022/04/23 01:16:02;0.00;0.00;0.62;0.00;0.00;0.62;2.40;1.60;;;26.70;21.90;;;;;;2261251;61;20708;-63
2022/04/23 01:18:48;0.00;0.00;0.62;0.00;0.00;0.62;1.97;1.60;;;26.70;21.90;;;;;;2261261;61;20361;-63
2022/04/23 01:21:34;0.00;0.00;0.62;0.00;0.00;0.62;2.10;1.90;;;26.70;21.80;;;;;;2261554;61;20932;-63
2022/04/23 01:24:20;0.00;0.00;0.62;0.00;0.00;0.62;2.00;1.57;;;26.70;21.80;;;;;;2261182;61;21002;-62
2022/04/23 01:27:05;0.00;0.00;0.62;0.00;0.00;0.62;1.90;1.70;;;26.70;21.80;;;;;;2261355;61;20396;-63
2022/04/23 01:29:49;0.00;0.00;0.62;0.00;0.00;0.62;2.20;1.93;;;26.70;21.70;;;;;;2261193;61;20361;-69
2022/04/23 01:32:34;0.00;0.00;0.62;0.00;0.00;0.62;2.20;2.00;;;26.60;21.70;;;;;;2261460;61;20936;-62
2022/04/23 01:35:19;0.00;0.00;0.62;0.00;0.00;0.62;1.87;1.50;;;26.60;21.70;;;;;;2261117;61;20408;-62
2022/04/23 01:38:05;0.00;0.00;0.62;0.00;0.00;0.62;2.50;2.30;;;26.60;21.70;;;;;;2260693;61;20357;-61
2022/04/23 01:40:50;0.00;0.00;0.62;0.00;0.00;0.62;4.10;1.90;;;26.60;21.70;;;;;;2260502;61;20816;-60
2022/04/23 01:43:34;0.00;0.00;0.62;0.00;0.00;0.62;2.30;2.00;;;26.60;21.60;;;;;;2252809;61;20779;-61
2022/04/23 01:46:19;0.00;0.00;0.62;0.00;0.00;0.62;1.90;1.70;;;26.60;21.60;;;;;;2252597;61;20939;-62
2022/04/23 01:49:04;0.00;0.00;0.62;0.00;0.00;0.62;2.63;2.20;;;26.50;21.50;;;;;;2252144;61;20418;-60
2022/04/23 01:51:48;0.00;0.00;0.62;0.00;0.00;0.62;2.13;1.90;;;26.60;21.60;;;;;;2253064;61;20445;-61
2022/04/23 01:54:35;0.00;0.00;0.62;0.00;0.00;0.62;2.10;1.60;;;26.60;21.60;;;;;;2253051;61;20435;-61
2022/04/23 01:57:19;0.00;0.00;0.62;0.00;0.00;0.62;2.10;1.90;;;26.50;21.60;;;;;;2252934;61;20513;-61
2022/04/23 02:00:07;0.00;0.00;0.62;0.00;0.00;0.62;2.17;1.97;;;26.50;21.60;;;;;;2252216;61;20975;-60
2022/04/23 02:02:57;0.00;0.00;0.62;0.00;0.00;0.62;2.10;1.80;;;26.40;21.50;;;;;;2253351;61;20384;-61
2022/04/23 02:05:42;0.00;0.00;0.62;0.00;0.00;0.62;2.30;1.80;;;26.40;21.50;;;;;;2252823;61;20430;-63
2022/04/23 02:08:26;0.00;0.00;0.62;0.00;0.00;0.62;3.10;1.70;;;26.40;21.50;;;;;;2252267;61;20394;-61
2022/04/23 02:11:12;0.00;0.00;0.62;0.00;0.00;0.62;2.20;1.80;;;26.40;21.50;;;;;;2252488;61;20470;-59
2022/04/23 02:13:57;0.00;0.00;0.62;0.00;0.00;0.62;2.77;1.97;;;26.40;21.50;;;;;;2261160;61;20365;-62
2022/04/23 02:16:42;0.00;0.00;0.62;0.00;0.00;0.62;2.33;2.07;;;26.30;21.40;;;;;;2260818;61;20480;-61
2022/04/23 02:19:26;0.00;0.00;0.62;0.00;0.00;0.62;2.40;2.20;;;26.30;21.40;;;;;;2259508;61;20364;-63
2022/04/23 02:22:10;0.00;0.00;0.62;0.00;0.00;0.62;2.27;1.93;;;26.30;21.50;;;;;;2260408;61;20466;-61
2022/04/23 02:24:56;0.00;0.00;0.62;0.00;0.00;0.62;2.13;1.93;;;26.30;21.50;;;;;;2261224;61;20354;-61
2022/04/23 02:27:45;0.00;0.00;0.62;0.00;0.00;0.62;2.50;2.00;;;26.30;21.50;;;;;;2260260;61;20396;-61
2022/04/23 02:30:30;0.00;0.00;0.62;0.00;0.00;0.62;2.20;1.90;;;26.20;21.40;;;;;;2260439;61;20362;-61
2022/04/23 02:33:14;0.00;0.00;0.62;0.00;0.00;0.62;2.30;1.90;;;26.20;21.40;;;;;;2260414;61;20423;-61
2022/04/23 02:35:59;0.00;0.00;0.62;0.00;0.00;0.62;2.20;1.97;;;26.20;21.40;;;;;;2261049;61;20376;-66
2022/04/23 02:38:44;0.00;0.00;0.62;0.00;0.00;0.62;3.13;1.90;;;26.20;22.00;;;;;;2259977;61;20753;-61
2022/04/23 02:41:29;0.00;0.00;0.62;0.00;0.00;0.62;2.40;2.20;;;26.10;21.40;;;;;;2260469;61;20381;-61
2022/04/23 02:44:15;0.00;0.00;0.62;0.00;0.00;0.62;2.07;1.87;;;26.10;21.40;;;;;;2261157;61;20851;-61
2022/04/23 02:47:00;0.00;0.00;0.62;0.00;0.00;0.62;2.23;1.80;;;26.10;21.50;;;;;;2260981;61;20388;-56
2022/04/23 02:49:44;0.00;0.00;0.62;0.00;0.00;0.62;2.03;1.83;;;26.00;21.40;;;;;;2260170;61;20411;-61
2022/04/23 02:52:29;0.00;0.00;0.62;0.00;0.00;0.62;2.80;2.27;;;26.00;21.50;;;;;;2260704;61;20773;-61
2022/04/23 02:55:14;0.00;0.00;0.62;0.00;0.00;0.62;2.77;2.03;;;26.00;21.50;;;;;;2260392;61;20416;-61
2022/04/23 02:58:01;0.00;0.00;0.62;0.00;0.00;0.62;2.27;2.07;;;26.00;21.60;;;;;;2260816;61;20814;-61
2022/04/23 03:00:47;0.00;0.00;0.62;0.00;0.00;0.62;2.50;2.07;;;26.00;21.60;;;;;;2260378;61;20377;-61
2022/04/23 03:03:33;0.00;0.00;0.62;0.00;0.00;0.62;2.70;2.03;;;26.00;21.60;;;;;;2260028;61;20450;-61
2022/04/23 03:06:18;0.00;0.00;0.62;0.00;0.00;0.62;1.80;1.60;;;25.90;22.10;;;;;;2260676;61;20780;-60
2022/04/23 03:09:03;0.00;0.00;0.62;0.00;0.00;0.62;2.47;1.87;;;25.90;21.50;;;;;;2259928;61;20460;-61
2022/04/23 03:11:48;0.00;0.00;0.62;0.00;0.00;0.62;2.67;2.30;;;25.90;21.50;;;;;;2259545;61;20412;-61
2022/04/23 03:14:32;0.00;0.00;0.62;0.00;0.00;0.62;2.53;2.33;;;25.80;21.50;;;;;;2260282;61;20373;-61
2022/04/23 03:17:18;0.00;0.00;0.62;0.00;0.00;0.62;1.93;1.73;;;25.80;21.50;;;;;;2260820;61;20399;-61
2022/04/23 03:20:04;0.00;0.00;0.62;0.00;0.00;0.62;2.30;2.07;;;25.80;21.60;;;;;;2260646;61;20435;-61
2022/04/23 03:22:49;0.00;0.00;0.62;0.00;0.00;0.62;2.30;2.10;;;25.80;21.60;;;;;;2260744;61;20715;-61
2022/04/23 03:25:34;0.00;0.00;0.62;0.00;0.00;0.62;2.47;2.27;;;25.80;21.60;;;;;;2260627;61;20443;-61
2022/04/23 03:28:20;0.00;0.00;0.62;0.00;0.00;0.62;2.50;2.30;;;25.80;21.60;;;;;;2260431;61;20404;-64
2022/04/23 03:31:05;0.00;0.00;0.62;0.00;0.00;0.62;2.50;2.00;;;25.70;21.50;;;;;;2260649;61;20412;-61
2022/04/23 03:33:51;0.00;0.00;0.62;0.00;0.00;0.62;2.60;2.37;;;25.70;21.50;;;;;;2260416;61;20813;-60
2022/04/23 03:36:35;0.00;0.00;0.62;0.00;0.00;0.62;3.10;2.33;;;25.70;21.50;;;;;;2549330;45;20361;-61
2022/04/23 03:39:19;0.00;0.00;0.62;0.00;0.00;0.62;2.43;2.17;;;25.70;21.50;;;;;;2260800;61;20801;-62
2022/04/23 03:42:05;0.00;0.00;0.62;0.00;0.00;0.62;2.77;2.30;;;25.60;21.50;;;;;;2260895;61;20377;-63
2022/04/23 03:44:50;0.00;0.00;0.62;0.00;0.00;0.62;2.70;2.50;;;25.60;21.50;;;;;;2257598;61;20361;-61
2022/04/23 03:47:35;0.00;0.00;0.62;0.00;0.00;0.62;2.70;2.50;;;25.60;21.50;;;;;;2259836;61;20512;-61
2022/04/23 03:50:21;0.00;0.00;0.62;0.00;0.00;0.62;2.43;2.23;;;25.60;21.50;;;;;;2260740;61;20427;-61
2022/04/23 03:53:05;0.00;0.00;0.62;0.00;0.00;0.62;2.50;2.30;;;25.50;21.40;;;;;;2260230;61;20870;-61
2022/04/23 03:55:50;0.00;0.00;0.62;0.00;0.00;0.62;2.90;2.70;;;25.50;21.40;;;;;;2259904;61;20885;-60
2022/04/23 03:58:35;0.00;0.00;0.62;0.00;0.00;0.62;2.80;2.60;;;25.50;21.40;;;;;;2259577;61;20357;-60
2022/04/23 04:01:20;0.00;0.00;0.62;0.00;0.00;0.62;3.13;2.13;;;25.50;21.40;;;;;;2260723;61;20431;-61
2022/04/23 04:04:05;0.00;0.00;0.62;0.00;0.00;0.62;2.87;2.17;;;25.50;21.40;;;;;;2259979;61;20356;-61
2022/04/23 04:06:51;0.00;0.00;0.62;0.00;0.00;0.62;3.10;2.90;;;25.50;21.40;;;;;;2256888;61;20507;-63
2022/04/23 04:09:35;0.00;0.00;0.62;0.00;0.00;0.62;2.50;2.20;;;25.40;21.90;;;;;;2259545;61;20384;-61
2022/04/23 04:12:20;0.00;0.00;0.62;0.00;0.00;0.62;2.90;2.43;;;25.40;21.40;;;;;;2260814;61;20381;-64
2022/04/23 04:15:09;0.00;0.00;0.62;0.00;0.00;0.62;2.53;2.30;;;25.40;21.40;;;;;;2257236;61;20451;-63
2022/04/23 04:17:54;0.00;0.00;0.62;0.00;0.00;0.62;3.07;2.80;;;25.40;21.40;;;;;;2260098;61;20893;-61
2022/04/23 04:20:40;0.00;0.00;0.62;0.00;0.00;0.62;2.73;2.50;;;25.40;21.40;;;;;;2259904;61;20736;-60
2022/04/23 04:23:27;0.00;0.00;0.62;0.00;0.00;0.62;2.60;2.40;;;25.30;21.40;;;;;;2261086;61;20364;-62
2022/04/23 04:26:12;0.00;0.00;0.62;0.00;0.00;0.62;3.10;2.80;;;25.30;21.40;;;;;;2260244;61;20369;-64
2022/04/23 04:28:56;0.00;0.00;0.62;0.00;0.00;0.62;3.00;2.57;;;25.30;21.40;;;;;;2259827;61;20416;-61
2022/04/23 04:31:47;0.00;0.00;0.62;0.00;0.00;0.62;3.13;2.83;;;25.30;21.40;;;;;;2260334;61;20384;-59
2022/04/23 04:34:32;0.00;0.00;0.62;0.00;0.00;0.62;2.33;2.13;;;25.30;21.40;;;;;;2257168;61;20376;-61
2022/04/23 04:37:16;0.00;0.00;0.62;0.00;0.00;0.62;2.60;2.40;;;25.20;21.40;;;;;;2253124;61;20362;-63
2022/04/23 04:40:03;0.00;0.00;0.62;0.00;0.00;0.62;2.93;2.47;;;25.20;21.40;;;;;;2251861;61;20423;-62
2022/04/23 04:42:47;0.00;0.00;0.62;0.00;0.00;0.62;2.77;2.50;;;25.20;21.40;;;;;;2252333;61;20842;-59
2022/04/23 04:45:31;0.00;0.00;0.62;0.00;0.00;0.62;3.57;2.87;;;25.20;21.40;;;;;;2253170;61;20855;-62
2022/04/23 04:48:16;0.00;0.00;0.62;0.00;0.00;0.62;2.67;2.47;;;25.20;21.40;;;;;;2246249;61;150606;-63
2022/04/23 04:51:01;0.00;0.00;0.62;0.00;0.00;0.62;2.90;2.60;;;25.10;21.40;;;;;;2252218;61;20811;-61
2022/04/23 04:53:45;0.00;0.00;0.62;0.00;0.00;0.62;2.90;2.60;;;25.10;21.40;;;;;;2252871;61;20370;-61
2022/04/23 04:56:32;0.00;0.00;0.62;0.00;0.00;0.62;2.70;2.30;;;25.10;21.40;;;;;;2253280;61;20394;-61
2022/04/23 04:59:17;0.00;0.00;0.62;0.00;0.00;0.62;3.37;2.63;;;25.10;21.40;;;;;;2259052;61;20372;-62
2022/04/23 05:02:02;0.00;0.00;0.62;0.00;0.00;0.62;2.90;2.60;;;25.10;21.40;;;;;;2260500;61;20432;-61
2022/04/23 05:04:46;0.00;0.00;0.62;0.00;0.00;0.62;2.90;2.60;;;25.10;21.50;;;;;;2260916;61;20955;-62
2022/04/23 05:07:31;0.00;0.00;0.62;0.00;0.00;0.62;3.27;2.70;;;25.10;21.50;;;;;;2261193;61;20427;-62
2022/04/23 05:10:15;0.00;0.00;0.62;0.00;0.00;0.62;3.03;2.63;;;25.00;21.40;;;;;;2260578;61;20467;-62
2022/04/23 05:13:01;0.00;0.00;0.62;0.00;0.00;0.62;3.00;2.70;;;25.00;21.40;;;;;;2261132;61;20448;-62
2022/04/23 05:15:45;0.00;0.00;0.62;0.00;0.00;0.62;2.97;2.53;;;25.00;21.40;;;;;;2261558;61;20755;-62
2022/04/23 05:18:30;0.00;0.00;0.62;0.00;0.00;0.62;3.33;2.70;;;25.00;21.50;;;;;;2261601;61;20412;-61
2022/04/23 05:21:15;0.00;0.00;0.62;0.00;0.00;0.62;3.40;2.70;;;25.00;21.50;;;;;;2261191;61;20384;-61
2022/04/23 05:23:59;0.00;0.00;0.62;0.00;0.00;0.62;2.77;2.57;;;25.00;21.50;;;;;;2261108;61;20782;-62
2022/04/23 05:26:44;0.00;0.00;0.62;0.00;0.00;0.62;3.27;2.97;;;25.00;21.50;;;;;;2258371;61;20394;-61
2022/04/23 05:29:30;0.00;0.00;0.62;0.00;0.00;0.62;3.30;3.00;;;24.90;21.50;;;;;;2260836;61;20496;-61
2022/04/23 05:32:14;0.00;0.00;0.62;0.00;0.00;0.62;3.73;2.80;;;24.90;21.50;;;;;;2260784;61;20912;-60
2022/04/23 05:34:59;0.00;0.00;0.62;0.00;0.00;0.62;2.67;2.40;;;24.90;21.50;;;;;;2261247;61;20456;-60
2022/04/23 05:37:43;0.00;0.00;0.62;0.00;0.00;0.62;2.37;2.10;;;24.90;21.50;;;;;;2261282;61;20366;-62
2022/04/23 05:40:28;0.00;0.00;0.62;0.00;0.00;0.62;2.50;2.30;;;24.90;21.60;;;;;;2261376;61;20878;-62
2022/04/23 05:43:12;0.00;0.00;0.62;0.00;0.00;0.62;3.10;2.37;;;24.90;21.60;;;;;;2260968;61;20925;-61
2022/04/23 05:46:00;0.00;0.00;0.62;0.00;0.00;0.62;2.50;2.23;;;24.90;21.60;;;;;;2257511;61;20392;-61
2022/04/23 05:48:44;0.00;0.00;0.62;0.00;0.00;0.62;2.70;2.50;;;24.90;21.60;;;;;;2260342;61;20443;-59
2022/04/23 05:51:29;0.00;0.00;0.62;0.00;0.00;0.62;3.20;2.90;;;24.90;21.60;;;;;;2260581;61;20392;-59
2022/04/23 05:54:13;0.00;0.00;0.62;0.00;0.00;0.62;3.30;2.90;;;24.90;21.60;;;;;;2256640;61;20775;-60
2022/04/23 05:56:58;0.00;0.00;0.62;0.00;0.00;0.62;3.20;2.90;;;24.90;21.60;;;;;;2260148;61;20419;-62
2022/04/23 05:59:42;0.00;0.00;0.62;0.00;0.00;0.62;2.17;1.97;;;24.80;21.50;;;;;;2254639;61;20457;-62
2022/04/23 06:02:28;0.00;0.00;0.62;0.00;0.00;0.62;3.07;2.77;;;24.80;21.50;;;;;;2261184;61;20532;-63
2022/04/23 06:05:13;0.00;0.00;0.62;0.00;0.00;0.62;2.70;2.47;;;24.90;21.60;;;;;;2261091;61;20365;-63
2022/04/23 06:07:58;0.00;0.00;0.62;0.00;0.00;0.62;2.90;2.60;;;24.90;21.60;;;;;;2260369;61;20928;-61
2022/04/23 06:10:43;0.00;0.00;0.62;0.00;0.00;0.62;2.80;2.50;;;24.80;21.60;;;;;;2261285;61;20495;-62
2022/04/23 06:13:27;0.00;0.00;0.62;0.00;0.00;0.62;2.77;2.40;;;24.80;21.50;;;;;;2260945;61;20364;-63
2022/04/23 06:16:12;0.00;0.00;0.62;0.00;0.00;0.62;2.67;2.47;;;24.80;21.50;;;;;;2260507;61;20452;-61
2022/04/23 06:18:58;0.00;0.00;0.62;0.00;0.00;0.62;2.63;2.30;;;24.80;21.60;;;;;;2260585;61;20379;-59
2022/04/23 06:21:42;0.00;0.00;0.62;0.00;0.00;0.62;3.00;2.70;;;24.80;21.60;;;;;;2260971;61;20392;-66
2022/04/23 06:24:27;0.00;0.00;0.62;0.00;0.00;0.62;3.10;2.60;;;24.80;21.60;;;;;;2260211;61;20373;-65
2022/04/23 06:27:11;0.00;0.00;0.62;0.00;0.00;0.62;2.93;2.63;;;24.80;21.70;;;;;;2259944;61;20462;-54
2022/04/23 06:29:55;0.00;0.00;0.62;0.00;0.00;0.62;2.93;2.43;;;24.80;21.70;;;;;;2260213;61;20361;-65
2022/04/23 06:32:40;0.00;0.00;0.62;0.00;0.00;0.62;3.17;2.87;;;24.70;21.70;;;;;;2260533;61;20384;-65
2022/04/23 06:35:26;0.00;0.00;0.62;0.00;0.00;0.62;2.87;2.40;;;24.70;21.70;;;;;;2260114;61;20360;-61
2022/04/23 06:38:11;0.00;0.00;0.62;0.00;0.00;0.62;3.53;3.03;;;24.80;21.80;;;;;;2256376;61;20503;-60
2022/04/23 06:40:56;0.00;0.00;0.62;0.00;0.00;0.62;3.27;2.97;;;24.80;21.90;;;;;;2260282;61;20419;-55
2022/04/23 06:43:41;0.00;0.00;0.62;0.00;0.00;0.62;3.40;3.10;;;24.80;21.90;;;;;;2260560;61;20885;-56
2022/04/23 06:46:25;0.00;0.00;0.62;0.00;0.00;0.62;3.20;2.90;;;24.70;21.70;;;;;;2259945;61;20444;-60
2022/04/23 06:49:11;0.00;0.00;0.62;0.00;0.00;0.62;2.90;2.60;;;24.70;21.60;;;;;;2259302;61;20459;-57
2022/04/23 06:51:57;0.00;0.00;0.62;0.00;0.00;0.62;3.10;2.80;;;24.80;21.70;;;;;;2260571;61;20385;-59
2022/04/23 06:54:41;0.00;0.00;0.62;0.00;0.00;0.62;3.90;2.87;;;24.80;21.70;;;;;;2260242;61;20384;-68
2022/04/23 06:57:26;0.00;0.00;0.62;0.00;0.00;0.62;3.90;2.53;;;24.80;21.70;;;;;;2253936;61;20405;-64
2022/04/23 07:00:12;0.00;0.00;0.62;0.00;0.00;0.62;3.03;2.67;;;24.80;21.70;;;;;;2255715;61;20358;-64
2022/04/23 07:02:57;0.00;0.00;0.62;0.00;0.00;0.62;3.20;2.90;;;24.80;21.70;;;;;;2256687;61;20549;-64
2022/04/23 07:05:41;0.00;0.00;0.62;0.00;0.00;0.62;2.90;2.70;;;24.80;21.70;;;;;;2256840;61;20882;-69
2022/04/23 07:08:27;0.00;0.00;0.62;0.00;0.00;0.62;5.37;3.07;;;24.80;21.80;;;;;;2255592;61;20944;-66
2022/04/23 07:11:11;0.00;0.00;0.62;0.00;0.00;0.62;3.47;3.00;;;24.80;21.80;;;;;;2255515;61;20373;-67
2022/04/23 07:13:56;0.00;0.00;0.62;0.00;0.00;0.62;3.10;2.80;;;24.80;21.80;;;;;;2256492;61;20374;-64
2022/04/23 07:16:41;0.00;0.00;0.62;0.00;0.00;0.62;3.10;2.80;;;24.80;21.80;;;;;;2623074;45;20465;-63
2022/04/23 07:19:26;0.00;0.00;0.62;0.00;0.00;0.62;3.30;3.00;;;24.80;21.80;;;;;;2255474;61;20410;-67
2022/04/23 07:22:11;0.00;0.00;0.62;0.00;0.00;0.62;3.33;3.00;;;24.80;21.80;;;;;;2256168;61;20402;-63
2022/04/23 07:24:57;0.00;0.00;0.62;0.00;0.00;0.62;3.70;3.40;;;24.90;21.90;;;;;;2253377;61;20902;-66
2022/04/23 07:27:41;0.00;0.00;0.62;0.00;0.00;0.62;3.30;2.93;;;24.80;21.80;;;;;;2256265;61;20445;-52
2022/04/23 07:30:27;0.00;0.00;0.62;0.00;0.00;0.62;3.50;3.20;;;24.90;21.90;;;;;;2255973;61;20834;-49
2022/04/23 07:37:28;0.00;0.00;0.62;0.00;0.00;0.62;4.43;3.47;;;24.90;21.80;;;;;;2256100;61;20875;-52
2022/04/23 07:39:21;0.00;0.00;0.62;0.00;0.00;0.62;4.30;3.90;;;24.90;21.70;;;;;;2255926;61;20366;-56
2022/04/23 07:42:07;0.00;0.00;0.62;0.00;0.00;0.62;4.67;4.27;;;24.90;21.60;;;;;;2255879;61;20477;-51
2022/04/23 07:44:52;0.00;0.00;0.62;0.00;0.00;0.62;4.50;4.10;;;24.90;21.60;;;;;;2255874;61;20369;-60
2022/04/23 07:47:37;0.00;0.00;0.62;0.00;0.00;0.62;7.00;5.30;;;24.90;21.60;;;;;;2252647;61;20413;-55
2022/04/23 07:50:22;0.00;0.00;0.62;0.00;0.00;0.62;5.73;3.93;;;24.90;21.70;;;;;;2256377;61;20429;-55
2022/04/23 07:53:07;0.00;0.00;0.62;0.00;0.00;0.62;5.20;3.90;;;24.90;21.70;;;;;;2255658;61;20390;-54
2022/04/23 07:55:51;0.00;0.00;0.62;0.00;0.00;0.62;4.50;4.03;;;24.90;21.80;;;;;;2256003;61;20397;-55
2022/04/23 07:58:37;0.00;0.00;0.62;0.00;0.00;0.62;4.67;4.27;;;24.90;21.80;;;;;;2252724;61;20385;-52
2022/04/23 08:01:22;0.00;0.00;0.62;0.00;0.00;0.62;3.90;3.50;;;24.90;21.80;;;;;;2256444;61;20971;-53
2022/04/23 08:04:07;0.00;0.00;0.62;0.00;0.00;0.62;4.60;3.20;;;25.00;21.90;;;;;;2256123;61;20938;-54
2022/04/23 08:06:51;0.00;0.00;0.62;0.00;0.00;0.62;3.40;3.10;;;25.00;21.90;;;;;;2255831;61;20822;-56
2022/04/23 08:09:39;0.00;0.00;0.62;0.00;0.00;0.62;4.10;3.70;;;25.00;21.90;;;;;;2255788;61;20365;-55
2022/04/23 08:12:24;0.00;0.00;0.62;0.00;0.00;0.62;3.70;3.23;;;25.00;21.90;;;;;;2256883;61;20874;-57
2022/04/23 08:15:12;0.00;0.00;0.62;0.00;0.00;0.62;3.90;3.50;;;25.00;21.90;;;;;;2256382;61;20366;-52
2022/04/23 08:17:56;0.00;0.00;0.62;0.00;0.00;0.62;4.13;3.40;;;25.00;21.90;;;;;;2256166;61;20440;-54
2022/04/23 08:20:41;0.00;0.00;0.62;0.00;0.00;0.62;4.23;3.63;;;25.00;21.90;;;;;;2253518;61;20424;-57
2022/04/23 08:23:25;0.00;0.00;0.62;0.00;0.00;0.62;4.40;4.00;;;25.00;21.90;;;;;;2256569;61;20385;-56
2022/04/23 08:26:10;0.00;0.00;0.62;0.00;0.00;0.62;3.63;2.90;;;25.10;21.90;;;;;;2256185;61;20403;-54
2022/04/23 08:31:59;0.00;0.00;0.62;0.00;0.00;0.62;4.00;3.00;;;25.10;21.90;;;;;;2256720;61;20855;-55
2022/04/23 08:34:45;0.00;0.00;0.62;0.00;0.00;0.62;3.80;3.30;;;25.10;21.90;;;;;;2252395;61;20401;-55
2022/04/23 08:37:29;0.00;0.00;0.62;0.00;0.00;0.62;3.20;2.77;;;25.10;21.90;;;;;;2255502;61;20794;-59
2022/04/23 08:40:14;0.00;0.00;0.62;0.00;0.00;0.62;3.87;3.20;;;25.10;21.90;;;;;;2255718;61;20440;-59
2022/04/23 08:42:59;0.00;0.00;0.62;0.00;0.00;0.62;3.93;3.40;;;25.20;21.90;;;;;;2256806;61;20789;-53
2022/04/23 08:45:43;0.00;0.00;0.62;0.00;0.00;0.62;2.93;2.67;;;25.20;21.90;;;;;;2256855;61;20365;-59
2022/04/23 08:48:36;0.00;0.00;0.62;0.00;0.00;0.62;3.03;2.73;;;25.20;21.90;;;;;;2256010;61;20390;-54
2022/04/23 08:51:23;0.00;0.00;0.62;0.00;0.00;0.62;3.47;3.17;;;25.20;21.90;;;;;;2256654;61;20428;-58
2022/04/23 08:54:11;0.00;0.00;0.62;0.00;0.00;0.62;4.17;3.20;;;25.20;21.80;;;;;;2256583;61;20466;-57
2022/04/23 08:56:56;0.00;0.00;0.62;0.00;0.00;0.62;3.60;3.13;;;25.20;21.80;;;;;;2257090;61;20378;-53
2022/04/23 08:59:44;0.00;0.00;0.62;0.00;0.00;0.62;6.63;3.30;;;25.20;21.80;;;;;;2256354;61;20834;-62
2022/04/23 09:02:30;0.00;0.00;0.62;0.00;0.00;0.62;3.53;3.00;;;25.20;21.80;;;;;;2256466;61;20517;-53
2022/04/23 09:05:16;0.00;0.00;0.62;0.00;0.00;0.62;3.30;3.00;;;25.30;21.90;;;;;;2253637;61;20825;-57
2022/04/23 09:08:05;0.00;0.00;0.62;0.00;0.00;0.62;3.20;2.50;;;25.30;21.90;;;;;;2256386;61;20393;-55
2022/04/23 09:10:54;0.00;0.00;0.62;0.00;0.00;0.62;3.37;3.07;;;25.30;21.90;;;;;;2256395;61;20406;-60
2022/04/23 09:13:39;0.00;0.00;0.62;0.00;0.00;0.62;2.87;2.33;;;25.30;21.80;;;;;;2256558;61;20350;-60
2022/04/23 09:25:39;0.00;0.00;0.62;0.00;0.00;0.62;3.10;2.50;;;25.40;21.80;;;;;;2256460;61;20374;-55
2022/04/23 09:28:28;0.00;0.00;0.62;0.00;0.00;0.62;2.60;2.40;;;25.40;21.80;;;;;;2256088;61;20436;-54
2022/04/23 09:31:15;0.00;0.00;0.62;0.00;0.00;0.62;2.80;2.40;;;25.40;21.90;;;;;;2256252;61;20392;-58
2022/04/23 09:34:00;0.00;0.00;0.62;0.00;0.00;0.62;3.10;2.70;;;25.40;21.80;;;;;;2257333;61;20913;-56
2022/04/23 09:36:49;0.00;0.00;0.62;0.00;0.00;0.62;2.50;2.30;;;25.50;21.90;;;;;;2256591;61;20416;-56
2022/04/23 09:39:38;0.00;0.00;0.62;0.00;0.00;0.62;2.30;1.80;;;25.50;21.90;;;;;;2255774;61;20420;-58
2022/04/23 09:42:22;0.00;0.00;0.62;0.00;0.00;0.62;3.47;2.83;;;25.50;21.90;;;;;;2256464;61;20490;-54
2022/04/23 09:45:17;0.00;0.00;0.62;0.00;0.00;0.62;2.90;2.37;;;25.50;21.90;;;;;;2257025;61;20839;-54
2022/04/23 09:48:17;0.00;0.00;0.62;0.00;0.00;0.62;2.57;2.23;;;25.50;21.90;;;;;;2255857;61;20485;-56
2022/04/23 09:51:03;0.00;0.00;0.62;0.00;0.00;0.62;2.90;2.60;;;25.50;21.90;;;;;;2256456;61;20416;-57
2022/04/23 09:53:48;0.00;0.00;0.62;0.00;0.00;0.62;2.87;2.57;;;25.60;21.90;;;;;;2256277;61;20424;-61
2022/04/23 09:56:34;0.00;0.00;0.62;0.00;0.00;0.62;3.30;2.50;;;25.60;21.90;;;;;;2256901;61;20949;-57
2022/04/23 09:59:19;0.00;0.00;0.62;0.00;0.00;0.62;2.50;2.20;;;25.60;21.90;;;;;;2255933;61;20419;-55
2022/04/23 10:02:08;0.00;0.00;0.62;0.00;0.00;0.62;2.57;2.37;;;25.60;21.90;;;;;;2256330;61;20389;-54
2022/04/23 10:04:57;0.00;0.00;0.62;0.00;0.00;0.62;2.17;1.90;;;25.60;21.90;;;;;;2256513;61;20370;-52
2022/04/23 10:07:46;0.00;0.00;0.62;0.00;0.00;0.62;2.13;1.90;;;25.70;21.90;;;;;;2256717;61;20880;-59
2022/04/23 10:10:36;0.00;0.00;0.62;0.00;0.00;0.62;2.17;1.97;;;25.70;21.90;;;;;;2256279;61;20909;-58
2022/04/23 10:13:25;0.00;0.00;0.62;0.00;0.00;0.62;2.97;2.33;;;25.70;21.90;;;;;;2256526;61;20925;-53
2022/04/23 10:16:11;0.00;0.00;0.62;0.00;0.00;0.62;3.70;2.47;;;25.70;21.90;;;;;;2256156;61;20389;-57
2022/04/23 10:18:57;0.00;0.00;0.62;0.00;0.00;0.62;2.33;1.80;;;25.70;21.90;;;;;;2256153;61;20393;-58
2022/04/23 10:21:53;0.00;0.00;0.62;0.00;0.00;0.62;2.10;1.83;;;25.80;22.00;;;;;;2256722;61;20389;-56
2022/04/23 10:24:42;0.00;0.00;0.62;0.00;0.00;0.62;2.20;1.70;;;25.80;21.90;;;;;;2256212;61;20370;-58
2022/04/23 10:27:28;0.00;0.00;0.62;0.00;0.00;0.62;2.17;1.97;;;25.80;21.90;;;;;;2256076;61;20362;-52
2022/04/23 10:30:15;0.00;0.00;0.62;0.00;0.00;0.62;2.80;2.40;;;25.80;21.90;;;;;;2256213;61;20405;-58
2022/04/23 10:33:23;0.00;0.00;0.62;0.00;0.00;0.62;2.43;2.10;;;25.80;22.00;;;;;;2256522;61;20417;-67
2022/04/23 10:36:10;0.00;0.00;0.62;0.00;0.00;0.62;2.90;2.60;;;25.90;22.00;;;;;;2256305;61;20412;-67
2022/04/23 10:39:21;0.00;0.00;0.62;0.00;0.00;0.62;2.73;2.33;;;25.90;22.10;;;;;;2255602;61;20362;-54
2022/04/23 10:42:06;0.00;0.00;0.62;0.00;0.00;0.62;2.40;2.07;;;25.90;22.10;;;;;;2256288;61;20428;-56
2022/04/23 10:44:55;0.00;0.00;0.62;0.00;0.00;0.62;3.03;2.37;;;25.90;22.10;;;;;;2256486;61;20365;-61
2022/04/23 10:47:41;0.00;0.00;0.62;0.00;0.00;0.62;2.37;2.17;;;26.00;22.20;;;;;;2256453;61;20393;-54
2022/04/23 10:50:29;0.00;0.00;0.62;0.00;0.00;0.62;2.30;1.80;;;26.00;22.20;;;;;;2256180;61;20370;-55
2022/04/23 10:53:14;0.00;0.00;0.62;0.00;0.00;0.62;2.40;2.13;;;26.00;22.20;;;;;;2255972;61;20390;-56
2022/04/23 10:56:06;0.00;0.00;0.62;0.00;0.00;0.62;3.37;2.23;;;26.00;22.10;;;;;;2256319;61;20365;-60
2022/04/23 10:58:52;0.00;0.00;0.62;0.00;0.00;0.62;2.20;1.90;;;26.10;22.70;;;;;;2256307;61;20361;-65
2022/04/23 11:01:36;0.00;0.00;0.62;0.00;0.00;0.62;2.30;2.10;;;26.10;22.20;;;;;;2255912;61;20918;-67
2022/04/23 11:04:22;0.00;0.00;0.62;0.00;0.00;0.62;3.03;1.90;;;26.10;22.20;;;;;;2256029;61;20374;-65
2022/04/23 11:13:27;0.00;0.00;0.62;0.00;0.00;0.62;4.37;2.67;;;26.20;22.20;;;;;;2256117;61;20389;-66
2022/04/23 11:16:13;0.00;0.00;0.62;0.00;0.00;0.62;2.40;2.00;;;26.30;22.20;;;;;;2306733;58;20451;-54